createdAt,value
2022-09-07T00:01:24.126Z,84.36
2022-09-07T00:03:56.670Z,84.01
2022-09-07T00:06:26.273Z,84.03
2022-09-07T00:08:54.770Z,84.35
2022-09-07T00:11:23.657Z,83.86
2022-09-07T00:13:52.226Z,83.96
2022-09-07T00:16:23.799Z,83.49
2022-09-07T00:18:56.238Z,84.00
2022-09-07T00:21:25.319Z,83.68
2022-09-07T00:23:54.779Z,83.61
2022-09-07T00:26:27.418Z,83.71
2022-09-07T00:28:59.406Z,83.42
2022-09-07T00:31:31.362Z,83.71
2022-09-07T00:34:03.002Z,83.21
2022-09-07T00:36:31.857Z,82.93
2022-09-07T00:39:00.564Z,82.36
2022-09-07T00:41:29.102Z,82.81
2022-09-07T00:44:00.574Z,83.36
2022-09-07T00:46:31.982Z,82.69
2022-09-07T00:49:09.487Z,82.56
2022-09-07T00:51:45.217Z,82.01
2022-09-07T00:54:19.231Z,81.81
2022-09-07T00:56:50.759Z,81.21
2022-09-07T00:59:23.858Z,81.20
2022-09-07T01:01:53.062Z,81.16
2022-09-07T01:04:23.976Z,81.17
2022-09-07T01:06:52.871Z,81.36
2022-09-07T01:09:24.061Z,81.93
2022-09-07T01:11:55.046Z,82.06
2022-09-07T01:14:28.041Z,81.75
2022-09-07T01:17:05.044Z,82.28
2022-09-07T01:20:18.109Z,82.85
2022-09-07T01:23:23.785Z,83.18
2022-09-07T01:26:17.835Z,82.72
2022-09-07T01:28:52.980Z,82.00
2022-09-07T01:31:28.913Z,83.30
2022-09-07T01:34:07.573Z,82.48
2022-09-07T01:36:47.994Z,83.58
2022-09-07T01:39:17.716Z,83.62
2022-09-07T01:41:54.211Z,84.10
2022-09-07T01:44:28.528Z,82.24
2022-09-07T01:47:04.032Z,83.55
2022-09-07T01:49:43.359Z,81.31
2022-09-07T01:52:18.347Z,83.37
2022-09-07T01:54:50.169Z,84.04
2022-09-07T01:57:27.800Z,84.16
2022-09-07T02:00:06.343Z,83.55
2022-09-07T02:02:46.530Z,80.66
2022-09-07T02:05:20.367Z,81.44
2022-09-07T02:07:55.250Z,79.72
2022-09-07T02:10:29.914Z,80.85
2022-09-07T02:13:03.245Z,78.31
2022-09-07T02:15:42.918Z,77.96
2022-09-07T02:18:14.266Z,78.65
2022-09-07T02:20:49.549Z,80.60
2022-09-07T02:23:23.182Z,83.51
2022-09-07T02:25:55.406Z,82.15
2022-09-07T02:28:29.627Z,82.11
2022-09-07T02:31:00.228Z,82.88
2022-09-07T02:33:29.384Z,85.54
2022-09-07T02:35:58.662Z,88.15
2022-09-07T02:38:27.650Z,93.43
2022-09-07T02:40:58.992Z,93.85
2022-09-07T02:43:28.696Z,92.25
2022-09-07T02:46:20.363Z,89.43
2022-09-07T02:49:03.315Z,87.50
2022-09-07T02:51:42.858Z,87.00
2022-09-07T02:54:27.371Z,88.82
2022-09-07T02:57:07.270Z,88.21
2022-09-07T03:00:01.309Z,90.40
2022-09-07T03:02:41.555Z,91.79
2022-09-07T03:05:18.387Z,92.72
2022-09-07T03:07:54.150Z,93.33
2022-09-07T03:10:23.474Z,93.16
2022-09-07T03:12:52.624Z,92.94
2022-09-07T03:15:24.504Z,93.29
2022-09-07T03:17:55.071Z,93.17
2022-09-07T03:20:24.645Z,93.09
2022-09-07T03:22:54.019Z,92.83
2022-09-07T03:25:22.866Z,93.19
2022-09-07T03:27:51.391Z,93.33
2022-09-07T03:30:20.334Z,93.21
2022-09-07T03:32:48.921Z,93.62
2022-09-07T03:35:19.393Z,93.26
2022-09-07T03:37:47.898Z,93.12
2022-09-07T03:40:17.506Z,92.78
2022-09-07T03:42:50.947Z,92.52
2022-09-07T03:45:19.727Z,92.02
2022-09-07T03:47:49.232Z,92.51
2022-09-07T03:50:19.333Z,92.78
2022-09-07T03:52:47.908Z,93.20
2022-09-07T03:55:16.587Z,93.03
2022-09-07T03:57:45.152Z,92.81
2022-09-07T04:00:16.201Z,92.08
2022-09-07T04:02:44.832Z,91.90
2022-09-07T04:05:13.482Z,91.62
2022-09-07T04:07:43.383Z,91.40
2022-09-07T04:10:12.131Z,90.14
2022-09-07T04:12:40.670Z,91.19
2022-09-07T04:15:10.671Z,91.00
2022-09-07T04:17:39.711Z,91.18
2022-09-07T04:20:10.180Z,90.68
2022-09-07T04:22:38.891Z,89.82
2022-09-07T04:25:09.762Z,88.70
2022-09-07T04:27:38.419Z,88.78
2022-09-07T04:30:08.420Z,89.82
2022-09-07T04:32:37.130Z,89.91
2022-09-07T04:35:06.806Z,89.48
2022-09-07T04:37:35.432Z,89.44
2022-09-07T04:40:04.786Z,90.11
2022-09-07T04:42:34.934Z,89.75
2022-09-07T04:45:03.708Z,90.91
2022-09-07T04:47:32.925Z,92.05
2022-09-07T04:50:01.621Z,93.22
2022-09-07T04:52:30.271Z,93.21
2022-09-07T04:54:58.908Z,93.59
2022-09-07T04:57:27.624Z,94.39
2022-09-07T04:59:57.504Z,95.12
2022-09-07T05:02:26.251Z,95.46
2022-09-07T05:04:57.331Z,95.99
2022-09-07T05:07:28.286Z,95.46
2022-09-07T05:09:57.324Z,96.01
2022-09-07T05:12:26.069Z,94.69
2022-09-07T05:14:55.958Z,94.98
2022-09-07T05:17:24.614Z,94.77
2022-09-07T05:19:53.438Z,95.16
2022-09-07T05:22:22.409Z,94.34
2022-09-07T05:24:51.024Z,94.39
2022-09-07T05:27:19.616Z,94.50
2022-09-07T05:30:04.574Z,94.72
2022-09-07T05:32:35.778Z,93.65
2022-09-07T05:35:04.374Z,93.11
2022-09-07T05:37:32.949Z,93.48
2022-09-07T05:40:01.461Z,92.81
2022-09-07T05:42:30.399Z,92.83
2022-09-07T05:44:59.315Z,91.21
2022-09-07T05:47:27.895Z,91.51
2022-09-07T05:49:57.848Z,90.85
2022-09-07T05:52:26.512Z,90.21
2022-09-07T05:55:03.217Z,90.54
2022-09-07T05:57:43.597Z,90.71
2022-09-07T06:00:14.594Z,90.49
2022-09-07T06:02:43.139Z,90.76
2022-09-07T06:05:13.158Z,91.65
2022-09-07T06:07:42.173Z,91.26
2022-09-07T06:12:59.573Z,92.22
2022-09-07T06:15:28.269Z,92.96
2022-09-07T06:17:56.842Z,91.57
2022-09-07T06:20:26.963Z,91.18
2022-09-07T06:22:55.633Z,90.67
2022-09-07T06:25:24.258Z,90.89
2022-09-07T06:27:54.064Z,89.85
2022-09-07T06:30:22.989Z,90.12
2022-09-07T06:32:51.636Z,90.96
2022-09-07T06:35:20.189Z,91.03
2022-09-07T06:37:50.142Z,90.61
2022-09-07T06:40:18.923Z,89.25
2022-09-07T06:42:47.472Z,89.06
2022-09-07T06:45:18.066Z,87.92
2022-09-07T06:47:46.595Z,87.80
2022-09-07T06:50:17.636Z,87.37
2022-09-07T06:55:36.139Z,85.28
2022-09-07T06:58:04.701Z,85.75
2022-09-07T07:00:33.403Z,84.73
2022-09-07T07:03:02.118Z,81.33
2022-09-07T07:05:31.762Z,78.51
2022-09-07T07:08:00.742Z,78.02
2022-09-07T07:10:29.387Z,76.83
2022-09-07T07:12:59.326Z,76.62
2022-09-07T07:15:29.741Z,73.62
2022-09-07T07:18:09.519Z,69.63
2022-09-07T07:20:47.824Z,65.18
2022-09-07T07:23:17.229Z,61.71
2022-09-07T07:25:46.234Z,59.33
2022-09-07T07:31:10.554Z,55.44
2022-09-07T07:33:41.536Z,53.19
2022-09-07T07:36:16.014Z,52.27
2022-09-07T07:39:03.602Z,50.97
2022-09-07T07:44:23.436Z,55.92
2022-09-07T07:46:52.716Z,57.62
2022-09-07T07:49:21.732Z,58.60
2022-09-07T07:54:40.602Z,55.63
2022-09-07T07:57:09.341Z,57.84
2022-09-07T07:59:40.025Z,54.84
2022-09-07T08:02:13.487Z,53.37
2022-09-07T08:04:44.616Z,53.01
2022-09-07T08:07:13.852Z,51.79
2022-09-07T08:09:44.085Z,54.96
2022-09-07T08:12:16.657Z,55.78
2022-09-07T08:14:48.455Z,58.19
2022-09-07T08:17:18.871Z,58.59
2022-09-07T08:19:47.402Z,60.73
2022-09-07T08:22:15.738Z,63.38
2022-09-07T08:24:44.167Z,63.06
2022-09-07T08:27:12.493Z,61.28
2022-09-07T08:29:40.912Z,62.60
2022-09-07T08:32:10.602Z,61.71
2022-09-07T08:34:40.785Z,58.75
2022-09-07T08:37:09.106Z,59.71
2022-09-07T08:39:37.685Z,57.44
2022-09-07T08:42:25.533Z,57.80
2022-09-07T08:45:07.884Z,56.34
2022-09-07T08:47:42.798Z,56.42
2022-09-07T08:50:18.275Z,55.66
2022-09-07T08:52:52.042Z,56.19
2022-09-07T08:55:27.896Z,56.40
2022-09-07T08:58:04.255Z,57.51
2022-09-07T09:00:36.055Z,59.02
2022-09-07T09:06:04.511Z,59.73
2022-09-07T09:08:49.507Z,59.04
2022-09-07T09:11:25.661Z,58.24
2022-09-07T09:14:04.107Z,59.86
2022-09-07T09:16:42.843Z,59.06
2022-09-07T09:19:51.325Z,57.73
2022-09-07T09:22:22.826Z,56.09
2022-09-07T09:24:59.115Z,55.07
2022-09-07T09:27:27.561Z,53.28
2022-09-07T09:29:55.931Z,52.44
2022-09-07T09:32:41.987Z,52.44
2022-09-07T09:35:23.529Z,50.63
2022-09-07T09:37:51.945Z,50.00
2022-09-07T09:40:25.540Z,50.09
2022-09-07T09:43:03.024Z,49.54
2022-09-07T09:48:34.526Z,48.80
2022-09-07T09:54:05.945Z,48.61
2022-09-07T09:56:40.397Z,46.44
2022-09-07T10:05:30.489Z,46.62
2022-09-07T10:07:59.059Z,47.12
2022-09-07T10:10:29.721Z,47.00
2022-09-07T10:12:58.503Z,47.04
2022-09-07T10:15:41.319Z,47.84
2022-09-07T10:18:21.275Z,47.37
2022-09-07T10:20:51.181Z,48.00
2022-09-07T10:23:25.359Z,48.02
2022-09-07T10:25:53.732Z,47.46
2022-09-07T10:28:24.880Z,47.28
2022-09-07T10:31:15.384Z,45.16
2022-09-07T10:36:49.961Z,45.16
2022-09-07T10:39:26.125Z,43.77
2022-09-07T10:42:08.655Z,45.50
2022-09-07T10:44:54.279Z,45.91
2022-09-07T10:47:35.163Z,47.01
2022-09-07T10:50:24.952Z,47.75
2022-09-07T10:53:39.141Z,45.36
2022-09-07T10:56:12.935Z,46.69
2022-09-07T10:59:08.989Z,44.60
2022-09-07T11:01:54.349Z,45.63
2022-09-07T11:04:44.329Z,46.18
2022-09-07T11:07:34.041Z,45.89
2022-09-07T11:10:18.169Z,45.49
2022-09-07T11:12:47.429Z,45.25
2022-09-07T11:15:22.427Z,46.43
2022-09-07T11:17:56.692Z,47.69
2022-09-07T11:20:30.958Z,45.90
2022-09-07T11:23:13.000Z,45.08
2022-09-07T11:25:52.172Z,48.47
2022-09-07T11:28:27.404Z,45.80
2022-09-07T11:31:01.499Z,47.51
2022-09-07T11:33:35.605Z,47.18
2022-09-07T11:36:12.193Z,46.20
2022-09-07T11:39:10.846Z,46.27
2022-09-07T11:41:48.434Z,46.09
2022-09-07T11:44:24.827Z,44.38
2022-09-07T11:46:57.926Z,48.09
2022-09-07T11:49:27.097Z,44.19
2022-09-07T11:52:16.103Z,45.20
2022-09-07T11:54:50.322Z,47.16
2022-09-07T11:57:50.488Z,43.45
2022-09-07T12:00:24.799Z,45.60
2022-09-07T12:03:38.121Z,43.59
2022-09-07T12:06:37.133Z,43.22
2022-09-07T12:09:20.312Z,43.25
2022-09-07T12:12:21.674Z,44.56
2022-09-07T12:15:06.934Z,43.79
2022-09-07T12:17:48.531Z,44.89
2022-09-07T12:20:19.450Z,43.75
2022-09-07T12:23:04.476Z,43.96
2022-09-07T12:25:35.194Z,47.51
2022-09-07T12:28:04.030Z,46.64
2022-09-07T12:30:57.837Z,44.89
2022-09-07T12:33:33.018Z,44.56
2022-09-07T12:36:02.175Z,44.05
2022-09-07T12:39:24.834Z,47.64
2022-09-07T12:44:43.980Z,43.99
2022-09-07T12:47:31.144Z,44.75
2022-09-07T12:50:14.925Z,43.80
2022-09-07T12:53:10.077Z,44.06
2022-09-07T12:59:29.500Z,42.90
2022-09-07T13:02:12.442Z,42.77
2022-09-07T13:05:03.176Z,45.69
2022-09-07T13:08:15.069Z,44.90
2022-09-07T13:10:45.034Z,47.10
2022-09-07T13:17:15.968Z,47.66
2022-09-07T13:20:08.349Z,44.27
2022-09-07T13:22:56.280Z,47.66
2022-09-07T13:25:46.897Z,49.98
2022-09-07T13:28:44.296Z,52.24
2022-09-07T13:31:43.146Z,53.63
2022-09-07T13:34:49.844Z,54.26
2022-09-07T13:37:24.125Z,55.22
2022-09-07T13:39:56.374Z,54.18
2022-09-07T13:42:27.453Z,54.20
2022-09-07T13:44:58.236Z,55.06
2022-09-07T13:47:40.116Z,54.02
2022-09-07T13:50:25.078Z,54.05
2022-09-07T13:53:26.146Z,53.84
2022-09-07T13:56:04.299Z,52.61
2022-09-07T13:58:37.721Z,52.77
2022-09-07T14:01:17.925Z,51.31
2022-09-07T14:03:52.014Z,51.14
2022-09-07T14:06:35.033Z,50.10
2022-09-07T14:09:12.582Z,49.46
2022-09-07T14:11:44.015Z,49.30
2022-09-07T14:14:21.950Z,48.76
2022-09-07T14:16:55.525Z,47.66
2022-09-07T14:19:27.575Z,48.22
2022-09-07T14:22:01.888Z,48.60
2022-09-07T14:24:37.738Z,49.21
2022-09-07T14:27:17.447Z,47.92
2022-09-07T14:29:45.821Z,48.29
2022-09-07T14:32:19.588Z,48.34
2022-09-07T14:34:48.593Z,48.29
2022-09-07T14:37:19.219Z,46.00
2022-09-07T14:39:52.708Z,47.46
2022-09-07T14:42:24.612Z,47.32
2022-09-07T14:45:21.017Z,47.02
2022-09-07T14:47:52.531Z,45.40
2022-09-07T14:50:24.844Z,45.92
2022-09-07T14:55:48.089Z,44.24
2022-09-07T14:58:25.302Z,44.37
2022-09-07T15:03:57.076Z,45.00
2022-09-07T15:09:33.389Z,45.42
2022-09-07T15:12:27.341Z,46.04
2022-09-07T15:15:13.453Z,46.68
2022-09-07T15:17:43.368Z,46.29
2022-09-07T15:20:36.427Z,46.35
2022-09-07T15:23:06.422Z,46.85
2022-09-07T15:25:35.831Z,46.93
2022-09-07T15:28:06.595Z,47.03
2022-09-07T15:30:35.311Z,47.27
2022-09-07T15:33:03.876Z,45.86
2022-09-07T15:35:32.271Z,47.71
2022-09-07T15:38:01.802Z,46.55
2022-09-07T15:40:51.314Z,47.33
2022-09-07T15:43:29.288Z,46.11
2022-09-07T15:45:57.776Z,46.02
2022-09-07T15:48:26.341Z,46.13
2022-09-07T15:51:04.793Z,46.58
2022-09-07T15:56:24.124Z,46.81
2022-09-07T15:58:57.882Z,46.98
2022-09-07T16:04:15.899Z,48.14
2022-09-07T16:06:44.599Z,46.64
2022-09-07T16:09:12.904Z,46.56
2022-09-07T16:11:41.243Z,46.24
2022-09-07T16:14:12.364Z,45.96
2022-09-07T16:19:29.113Z,47.26
2022-09-07T16:21:57.825Z,47.75
2022-09-07T16:24:27.849Z,46.89
2022-09-07T16:26:56.480Z,46.60
2022-09-07T16:29:26.298Z,48.60
2022-09-07T16:34:43.471Z,46.68
2022-09-07T16:37:11.873Z,47.02
2022-09-07T16:39:40.226Z,46.75
2022-09-07T16:42:09.151Z,47.19
2022-09-07T16:44:39.056Z,47.67
2022-09-07T16:47:08.117Z,47.18
2022-09-07T16:49:36.446Z,47.76
2022-09-07T16:52:10.580Z,48.60
2022-09-07T16:54:39.205Z,47.89
2022-09-07T16:57:07.817Z,48.45
2022-09-07T16:59:36.212Z,47.79
2022-09-07T17:02:05.947Z,49.07
2022-09-07T17:04:34.350Z,48.05
2022-09-07T17:07:02.699Z,48.08
2022-09-07T17:09:31.062Z,47.86
2022-09-07T17:11:59.399Z,47.91
2022-09-07T17:14:28.294Z,47.68
2022-09-07T17:16:56.711Z,48.03
2022-09-07T17:19:30.036Z,46.92
2022-09-07T17:21:59.918Z,47.08
2022-09-07T17:24:32.239Z,47.43
2022-09-07T17:27:01.207Z,47.40
2022-09-07T17:29:30.792Z,46.43
2022-09-07T17:34:51.279Z,46.77
2022-09-07T17:37:19.907Z,47.26
2022-09-07T17:39:48.353Z,46.58
2022-09-07T17:42:17.040Z,46.94
2022-09-07T17:44:45.410Z,46.97
2022-09-07T17:47:13.974Z,46.28
2022-09-07T17:49:42.311Z,47.32
2022-09-07T17:52:12.000Z,46.58
2022-09-07T17:54:40.614Z,46.13
2022-09-07T17:57:08.951Z,47.01
2022-09-07T18:02:25.655Z,47.13
2022-09-07T18:04:54.079Z,46.71
2022-09-07T18:07:23.831Z,46.40
2022-09-07T18:09:52.570Z,46.80
2022-09-07T18:12:20.969Z,46.96
2022-09-07T18:14:49.278Z,47.00
2022-09-07T18:17:17.637Z,46.93
2022-09-07T18:19:45.923Z,46.67
2022-09-07T18:22:15.307Z,47.16
2022-09-07T18:24:45.351Z,47.26
2022-09-07T18:27:13.756Z,46.11
2022-09-07T18:29:43.410Z,45.61
2022-09-07T18:32:11.710Z,45.91
2022-09-07T18:34:41.449Z,46.58
2022-09-07T18:37:12.120Z,45.76
2022-09-07T18:39:41.143Z,46.19
2022-09-07T18:42:11.313Z,47.49
2022-09-07T18:47:29.396Z,47.54
2022-09-07T18:49:58.671Z,46.90
2022-09-07T18:55:16.352Z,47.21
2022-09-07T18:57:46.529Z,46.97
